Walla Walla Regional Airport
KALW : now visible

Airfield :











YOU CAN JOIN US ON...

 
LOGIN :

Register | Disclaimer

   EN    FR    IT 

 









Legend :    VFR   Marginal VFR   IFR   Intensive IFR   Very Intensive IFR
Visi :
Ceiling :
>= 8 km
>= 3000ft
5 to 8 km
1000 to 3000 ft
1500m to 5 km
500 to 1000 ft
800 to 1500m
200 to 500 ft
< 800m
< 200 ft
Symbols :   Thunderstorms  Fog  Heavy snow  Heavy precipitations  Wind > 20 kt






- Airport Elevation : 1194 ft
- IATA code : ALW


KALW - Walla Walla Regional

CURRENT METAR :
  • 151827Z 15004KT 10SM SCT011 BKN045 OVC085 06/03 A3013 RMK AO2 RAB1756E26 P0000 T00560028

EXPIRED METARs :
  • 151753Z 18005KT 10SM OVC010 05/03 A3012 RMK AO2 SLP208 T00500028 10050 20044 51009
  • 151653Z 19006KT 10SM OVC011 05/03 A3012 RMK AO2 SLP207 T00500028
  • 151553Z 18006KT 10SM OVC011 04/03 A3010 RMK AO2 SLP201 T00440028

TAF KALW
Valid from the 15 at 18:00 until the 16 at 18:00 UTC


151732Z 1518/1618 VRB03KT 5SM -RA BKN015 OVC050
TEMPO 1518/1520 OVC010
FM152000 19006KT 6SM -RA BR OVC025
FM160100 19006KT 6SM BR SCT025 BKN060
FM160900 17009KT 6SM BR SCT025
FM161500 20007KT P6SM FEW020 BKN200



MET'MAP, your aeronautical weather chart ! - Copyright ORBIFLY December 2007 - Disclaimer

ORBIFLY MET'MAP TEAM :

Programming & Development : Alexandra Zaïnal
Concept & Development : Baudouin d'Aumeries
Co-Development & Prog : Marc-Olivier Méhu
Technical & hardware support : Manuel Goepfert

Contact : metmap@orbifly.com




SOURCES & CREDITS :

   NOAA       Earth
Advisory